SLYA

Details ICAO SLYA (BYC)
Name YACUIBA
Region Bolivia
Timezone America/La_Paz (UTC-4.0)
Plans Departing 1
Arriving 1
Stats Elevation 2,116 ft / 645 m (AMSL)
Location -21.960926° -63.651671°
Runways 1
Magnetic Variation 10.270° W
Sunrise 2018-05-23 10:43:47 UTC / 2018-05-23 06:43:47 Local
Sunset 2018-05-23 21:41:49 UTC / 2018-05-23 17:41:49 Local
Advertisement - Login to hide

Runways

ID Width Length Bearing (true) Bearing (mag) Surface Threshold Offset Overrun Length
02 118 ft / 36 m 6,922 ft / 2,110 m 20.24° 30.51° Asphalt 0 ft / 0 m 190 ft / 58 m
20 118 ft / 36 m 6,922 ft / 2,110 m 200.24° 210.51° Asphalt 0 ft / 0 m 190 ft / 58 m

Map

Weather


0- 5 10 15 20 25 30 35+ Temperature / ° C

Clouds and Precipitation
Forecast for 2018-05-23 18:00 UTC. Updated 17 minutes ago

Ground ~20,000 ft ~40,000 ft Winds

METAR

SLYA 231700Z 36006KT 9999 SCT023 BKN070 19/13 Q1021

TAF

Not found

Frequencies

Tower 118.30 MHz TWR
Warning: Do not use this data for real-world aviation or navigation. No guarantee of current accuracy is given.